sensor_id;sensor_type;location;lat;lon;timestamp;temperature;humidity
38973;DHT22;25333;50.762;4.470;2023-08-17T00:00:26;18.70;99.90
38973;DHT22;25333;50.762;4.470;2023-08-17T00:02:52;18.60;99.90
38973;DHT22;25333;50.762;4.470;2023-08-17T00:05:18;18.60;99.90
38973;DHT22;25333;50.762;4.470;2023-08-17T00:07:43;18.60;99.90
38973;DHT22;25333;50.762;4.470;2023-08-17T00:10:09;18.60;99.90
38973;DHT22;25333;50.762;4.470;2023-08-17T00:12:35;18.60;99.90
38973;DHT22;25333;50.762;4.470;2023-08-17T00:15:00;18.60;99.90
38973;DHT22;25333;50.762;4.470;2023-08-17T00:17:26;18.60;99.90
38973;DHT22;25333;50.762;4.470;2023-08-17T00:19:52;18.60;99.90
38973;DHT22;25333;50.762;4.470;2023-08-17T00:22:17;18.50;99.90
38973;DHT22;25333;50.762;4.470;2023-08-17T00:24:43;18.50;99.90
38973;DHT22;25333;50.762;4.470;2023-08-17T00:27:10;18.50;99.90
38973;DHT22;25333;50.762;4.470;2023-08-17T00:29:36;18.40;99.90
38973;DHT22;25333;50.762;4.470;2023-08-17T00:32:05;18.40;99.90
38973;DHT22;25333;50.762;4.470;2023-08-17T00:34:31;18.50;99.90
38973;DHT22;25333;50.762;4.470;2023-08-17T00:36:57;18.40;99.90
38973;DHT22;25333;50.762;4.470;2023-08-17T00:39:23;18.30;99.90
38973;DHT22;25333;50.762;4.470;2023-08-17T00:41:48;18.30;99.90
38973;DHT22;25333;50.762;4.470;2023-08-17T00:44:14;18.30;99.90
38973;DHT22;25333;50.762;4.470;2023-08-17T00:46:40;18.20;99.90
38973;DHT22;25333;50.762;4.470;2023-08-17T00:49:06;18.30;99.90
38973;DHT22;25333;50.762;4.470;2023-08-17T00:51:32;18.20;99.90
38973;DHT22;25333;50.762;4.470;2023-08-17T00:53:59;18.20;99.90
38973;DHT22;25333;50.762;4.470;2023-08-17T00:56:26;18.10;99.90
38973;DHT22;25333;50.762;4.470;2023-08-17T00:58:52;17.90;99.90
38973;DHT22;25333;50.762;4.470;2023-08-17T01:01:19;17.90;99.90
38973;DHT22;25333;50.762;4.470;2023-08-17T01:03:46;17.80;99.90
38973;DHT22;25333;50.762;4.470;2023-08-17T01:06:11;17.80;99.90
38973;DHT22;25333;50.762;4.470;2023-08-17T01:08:38;17.90;99.90
38973;DHT22;25333;50.762;4.470;2023-08-17T01:14:05;18.00;99.90
38973;DHT22;25333;50.762;4.470;2023-08-17T01:16:42;17.90;99.90
38973;DHT22;25333;50.762;4.470;2023-08-17T01:19:13;17.90;99.90
38973;DHT22;25333;50.762;4.470;2023-08-17T01:21:50;17.90;99.90
38973;DHT22;25333;50.762;4.470;2023-08-17T01:24:16;17.90;99.90
38973;DHT22;25333;50.762;4.470;2023-08-17T01:26:42;17.90;99.90
38973;DHT22;25333;50.762;4.470;2023-08-17T01:29:08;18.00;99.90
38973;DHT22;25333;50.762;4.470;2023-08-17T01:32:01;18.00;99.90
38973;DHT22;25333;50.762;4.470;2023-08-17T01:34:33;18.10;99.90
38973;DHT22;25333;50.762;4.470;2023-08-17T01:37:01;18.10;99.90
38973;DHT22;25333;50.762;4.470;2023-08-17T01:39:36;18.10;99.90
38973;DHT22;25333;50.762;4.470;2023-08-17T01:42:03;18.10;99.90
38973;DHT22;25333;50.762;4.470;2023-08-17T01:44:29;18.10;99.90
38973;DHT22;25333;50.762;4.470;2023-08-17T01:46:55;18.10;99.90
38973;DHT22;25333;50.762;4.470;2023-08-17T01:49:21;18.10;99.90
38973;DHT22;25333;50.762;4.470;2023-08-17T01:51:47;18.10;99.90
38973;DHT22;25333;50.762;4.470;2023-08-17T01:54:12;18.00;99.90
38973;DHT22;25333;50.762;4.470;2023-08-17T01:56:38;18.00;99.90
38973;DHT22;25333;50.762;4.470;2023-08-17T01:59:04;18.10;99.90
38973;DHT22;25333;50.762;4.470;2023-08-17T02:01:29;18.00;99.90
38973;DHT22;25333;50.762;4.470;2023-08-17T02:03:55;18.10;99.90
38973;DHT22;25333;50.762;4.470;2023-08-17T02:06:21;18.20;99.90
38973;DHT22;25333;50.762;4.470;2023-08-17T02:08:46;18.20;99.90
38973;DHT22;25333;50.762;4.470;2023-08-17T02:11:12;18.30;99.90
38973;DHT22;25333;50.762;4.470;2023-08-17T02:13:38;18.30;99.90
38973;DHT22;25333;50.762;4.470;2023-08-17T02:16:07;18.40;99.90
38973;DHT22;25333;50.762;4.470;2023-08-17T02:18:32;18.40;99.90
38973;DHT22;25333;50.762;4.470;2023-08-17T02:21:00;18.40;99.90
38973;DHT22;25333;50.762;4.470;2023-08-17T02:23:25;18.40;99.90
38973;DHT22;25333;50.762;4.470;2023-08-17T02:25:51;18.40;99.90
38973;DHT22;25333;50.762;4.470;2023-08-17T02:28:17;18.40;99.90
38973;DHT22;25333;50.762;4.470;2023-08-17T02:30:43;18.40;99.90
38973;DHT22;25333;50.762;4.470;2023-08-17T02:33:09;18.50;99.90
38973;DHT22;25333;50.762;4.470;2023-08-17T02:35:35;18.50;99.90
38973;DHT22;25333;50.762;4.470;2023-08-17T02:38:00;18.50;99.90
38973;DHT22;25333;50.762;4.470;2023-08-17T02:40:26;18.50;99.90
38973;DHT22;25333;50.762;4.470;2023-08-17T02:42:52;18.60;99.90
38973;DHT22;25333;50.762;4.470;2023-08-17T02:45:17;18.70;99.90
38973;DHT22;25333;50.762;4.470;2023-08-17T02:47:43;18.70;99.90
38973;DHT22;25333;50.762;4.470;2023-08-17T02:50:10;18.60;99.90
38973;DHT22;25333;50.762;4.470;2023-08-17T02:52:35;18.50;99.90
38973;DHT22;25333;50.762;4.470;2023-08-17T02:55:01;18.50;99.90
38973;DHT22;25333;50.762;4.470;2023-08-17T02:57:27;18.50;99.90
38973;DHT22;25333;50.762;4.470;2023-08-17T02:59:52;18.60;99.90
38973;DHT22;25333;50.762;4.470;2023-08-17T03:02:18;18.60;99.90
38973;DHT22;25333;50.762;4.470;2023-08-17T03:04:44;18.60;99.90
38973;DHT22;25333;50.762;4.470;2023-08-17T03:07:09;18.60;99.90
38973;DHT22;25333;50.762;4.470;2023-08-17T03:09:35;18.70;99.90
38973;DHT22;25333;50.762;4.470;2023-08-17T03:12:01;18.70;99.90
38973;DHT22;25333;50.762;4.470;2023-08-17T03:14:26;18.70;99.90
38973;DHT22;25333;50.762;4.470;2023-08-17T03:16:52;18.70;99.90
38973;DHT22;25333;50.762;4.470;2023-08-17T03:19:18;18.70;99.90
38973;DHT22;25333;50.762;4.470;2023-08-17T03:21:44;18.60;99.90
38973;DHT22;25333;50.762;4.470;2023-08-17T03:24:10;18.70;99.90
38973;DHT22;25333;50.762;4.470;2023-08-17T03:26:35;18.70;99.90
38973;DHT22;25333;50.762;4.470;2023-08-17T03:29:01;18.70;99.90
38973;DHT22;25333;50.762;4.470;2023-08-17T03:31:27;18.70;99.90
38973;DHT22;25333;50.762;4.470;2023-08-17T03:33:52;18.50;99.90
38973;DHT22;25333;50.762;4.470;2023-08-17T03:36:18;18.50;99.90
38973;DHT22;25333;50.762;4.470;2023-08-17T03:38:44;18.40;99.90
38973;DHT22;25333;50.762;4.470;2023-08-17T03:41:10;18.40;99.90
38973;DHT22;25333;50.762;4.470;2023-08-17T03:43:36;18.40;99.90
38973;DHT22;25333;50.762;4.470;2023-08-17T03:46:03;18.40;99.90
38973;DHT22;25333;50.762;4.470;2023-08-17T03:48:29;18.30;99.90
38973;DHT22;25333;50.762;4.470;2023-08-17T03:50:55;18.10;99.90
38973;DHT22;25333;50.762;4.470;2023-08-17T03:53:21;18.10;99.90
38973;DHT22;25333;50.762;4.470;2023-08-17T03:55:50;18.10;99.90
38973;DHT22;25333;50.762;4.470;2023-08-17T03:58:17;18.10;99.90
38973;DHT22;25333;50.762;4.470;2023-08-17T04:00:49;18.00;99.90
38973;DHT22;25333;50.762;4.470;2023-08-17T04:03:16;18.00;99.90
38973;DHT22;25333;50.762;4.470;2023-08-17T04:05:42;18.00;99.90
38973;DHT22;25333;50.762;4.470;2023-08-17T04:08:08;17.90;99.90
38973;DHT22;25333;50.762;4.470;2023-08-17T04:10:34;17.90;99.90
38973;DHT22;25333;50.762;4.470;2023-08-17T04:13:00;17.90;99.90
38973;DHT22;25333;50.762;4.470;2023-08-17T04:15:25;17.80;99.90
38973;DHT22;25333;50.762;4.470;2023-08-17T04:17:51;17.60;99.90
38973;DHT22;25333;50.762;4.470;2023-08-17T04:20:17;17.60;99.90
38973;DHT22;25333;50.762;4.470;2023-08-17T04:22:44;17.60;99.90
38973;DHT22;25333;50.762;4.470;2023-08-17T04:25:10;17.60;99.90
38973;DHT22;25333;50.762;4.470;2023-08-17T04:27:35;17.60;99.90
38973;DHT22;25333;50.762;4.470;2023-08-17T04:30:01;17.60;99.90
38973;DHT22;25333;50.762;4.470;2023-08-17T04:32:27;17.70;99.90
38973;DHT22;25333;50.762;4.470;2023-08-17T04:34:53;17.60;99.90
38973;DHT22;25333;50.762;4.470;2023-08-17T04:37:18;17.50;99.90
38973;DHT22;25333;50.762;4.470;2023-08-17T04:39:44;17.60;99.90
38973;DHT22;25333;50.762;4.470;2023-08-17T04:42:10;17.70;99.90
38973;DHT22;25333;50.762;4.470;2023-08-17T04:44:36;17.60;99.90
38973;DHT22;25333;50.762;4.470;2023-08-17T04:47:02;17.70;99.90
38973;DHT22;25333;50.762;4.470;2023-08-17T04:49:27;17.80;99.90
38973;DHT22;25333;50.762;4.470;2023-08-17T04:51:53;17.80;99.90
38973;DHT22;25333;50.762;4.470;2023-08-17T04:54:19;17.90;99.90
38973;DHT22;25333;50.762;4.470;2023-08-17T04:56:45;17.90;99.90
38973;DHT22;25333;50.762;4.470;2023-08-17T04:59:11;17.90;99.90
38973;DHT22;25333;50.762;4.470;2023-08-17T05:01:39;18.00;99.90
38973;DHT22;25333;50.762;4.470;2023-08-17T05:04:05;18.00;99.90
38973;DHT22;25333;50.762;4.470;2023-08-17T05:06:31;18.00;99.90
38973;DHT22;25333;50.762;4.470;2023-08-17T05:08:57;18.00;99.90
38973;DHT22;25333;50.762;4.470;2023-08-17T05:14:29;18.00;99.90
38973;DHT22;25333;50.762;4.470;2023-08-17T05:16:58;18.00;99.90
38973;DHT22;25333;50.762;4.470;2023-08-17T05:19:23;18.00;99.90
38973;DHT22;25333;50.762;4.470;2023-08-17T05:21:49;18.00;99.90
38973;DHT22;25333;50.762;4.470;2023-08-17T05:24:16;18.00;99.90
38973;DHT22;25333;50.762;4.470;2023-08-17T05:26:45;17.80;99.90
38973;DHT22;25333;50.762;4.470;2023-08-17T05:29:11;17.90;99.90
38973;DHT22;25333;50.762;4.470;2023-08-17T05:31:36;17.90;99.90
38973;DHT22;25333;50.762;4.470;2023-08-17T05:34:03;17.90;99.90
38973;DHT22;25333;50.762;4.470;2023-08-17T05:36:29;18.00;99.90
38973;DHT22;25333;50.762;4.470;2023-08-17T05:38:55;18.10;99.90
38973;DHT22;25333;50.762;4.470;2023-08-17T05:41:20;18.10;99.90
38973;DHT22;25333;50.762;4.470;2023-08-17T05:43:46;18.10;99.90
38973;DHT22;25333;50.762;4.470;2023-08-17T05:46:11;18.20;99.90
38973;DHT22;25333;50.762;4.470;2023-08-17T05:48:37;18.20;99.90
38973;DHT22;25333;50.762;4.470;2023-08-17T05:51:03;18.20;99.90
38973;DHT22;25333;50.762;4.470;2023-08-17T05:53:28;18.30;99.90
38973;DHT22;25333;50.762;4.470;2023-08-17T05:55:57;18.30;99.90
38973;DHT22;25333;50.762;4.470;2023-08-17T05:58:23;18.40;99.90
38973;DHT22;25333;50.762;4.470;2023-08-17T06:00:49;18.50;99.90
38973;DHT22;25333;50.762;4.470;2023-08-17T06:03:15;18.50;99.90
38973;DHT22;25333;50.762;4.470;2023-08-17T06:05:41;18.50;99.90
38973;DHT22;25333;50.762;4.470;2023-08-17T06:08:06;18.50;99.90
38973;DHT22;25333;50.762;4.470;2023-08-17T06:10:32;18.50;99.90
38973;DHT22;25333;50.762;4.470;2023-08-17T06:12:58;18.50;99.90
38973;DHT22;25333;50.762;4.470;2023-08-17T06:15:24;18.50;99.90
38973;DHT22;25333;50.762;4.470;2023-08-17T06:17:50;18.40;99.90
38973;DHT22;25333;50.762;4.470;2023-08-17T06:20:19;18.40;99.90
38973;DHT22;25333;50.762;4.470;2023-08-17T06:22:45;18.30;99.90
38973;DHT22;25333;50.762;4.470;2023-08-17T06:25:10;18.40;99.90
38973;DHT22;25333;50.762;4.470;2023-08-17T06:27:36;18.50;99.90
38973;DHT22;25333;50.762;4.470;2023-08-17T06:30:03;18.50;99.90
38973;DHT22;25333;50.762;4.470;2023-08-17T06:32:32;18.50;99.90
38973;DHT22;25333;50.762;4.470;2023-08-17T06:34:58;18.50;99.90
38973;DHT22;25333;50.762;4.470;2023-08-17T06:37:23;18.60;99.90
38973;DHT22;25333;50.762;4.470;2023-08-17T06:39:49;18.60;99.90
38973;DHT22;25333;50.762;4.470;2023-08-17T06:42:15;18.50;99.90
38973;DHT22;25333;50.762;4.470;2023-08-17T06:44:41;18.50;99.90
38973;DHT22;25333;50.762;4.470;2023-08-17T06:47:06;18.60;99.90
38973;DHT22;25333;50.762;4.470;2023-08-17T06:49:32;18.70;99.90
38973;DHT22;25333;50.762;4.470;2023-08-17T06:51:58;18.70;99.90
38973;DHT22;25333;50.762;4.470;2023-08-17T06:54:23;18.80;99.90
38973;DHT22;25333;50.762;4.470;2023-08-17T06:56:49;18.80;99.90
38973;DHT22;25333;50.762;4.470;2023-08-17T06:59:14;18.70;99.90
38973;DHT22;25333;50.762;4.470;2023-08-17T07:01:41;18.60;99.90
38973;DHT22;25333;50.762;4.470;2023-08-17T07:04:06;18.70;99.90
38973;DHT22;25333;50.762;4.470;2023-08-17T07:06:33;18.70;99.90
38973;DHT22;25333;50.762;4.470;2023-08-17T07:09:25;18.80;99.90
38973;DHT22;25333;50.762;4.470;2023-08-17T07:11:53;18.90;99.90
38973;DHT22;25333;50.762;4.470;2023-08-17T07:14:19;18.90;99.90
38973;DHT22;25333;50.762;4.470;2023-08-17T07:16:44;18.90;99.90
38973;DHT22;25333;50.762;4.470;2023-08-17T07:19:10;18.80;99.90
38973;DHT22;25333;50.762;4.470;2023-08-17T07:21:37;18.80;99.90
38973;DHT22;25333;50.762;4.470;2023-08-17T07:24:14;18.80;99.90
38973;DHT22;25333;50.762;4.470;2023-08-17T07:26:44;18.70;99.90
38973;DHT22;25333;50.762;4.470;2023-08-17T07:29:10;18.70;99.90
38973;DHT22;25333;50.762;4.470;2023-08-17T07:31:37;18.80;99.90
38973;DHT22;25333;50.762;4.470;2023-08-17T07:34:07;18.90;99.90
38973;DHT22;25333;50.762;4.470;2023-08-17T07:36:34;18.70;99.90
38973;DHT22;25333;50.762;4.470;2023-08-17T07:39:09;18.70;99.90
38973;DHT22;25333;50.762;4.470;2023-08-17T07:41:36;18.70;99.90
38973;DHT22;25333;50.762;4.470;2023-08-17T07:44:03;18.80;99.90
38973;DHT22;25333;50.762;4.470;2023-08-17T07:46:29;18.80;99.90
38973;DHT22;25333;50.762;4.470;2023-08-17T07:48:55;18.90;99.90
38973;DHT22;25333;50.762;4.470;2023-08-17T07:51:21;18.80;99.90
38973;DHT22;25333;50.762;4.470;2023-08-17T07:53:47;18.70;99.90
38973;DHT22;25333;50.762;4.470;2023-08-17T07:56:12;18.70;99.90
38973;DHT22;25333;50.762;4.470;2023-08-17T07:58:38;18.70;99.90
38973;DHT22;25333;50.762;4.470;2023-08-17T08:01:04;18.80;99.90
38973;DHT22;25333;50.762;4.470;2023-08-17T08:03:31;18.90;99.90
38973;DHT22;25333;50.762;4.470;2023-08-17T08:05:57;19.00;99.90
38973;DHT22;25333;50.762;4.470;2023-08-17T08:08:23;19.10;99.90
38973;DHT22;25333;50.762;4.470;2023-08-17T08:10:49;19.10;99.90
38973;DHT22;25333;50.762;4.470;2023-08-17T08:13:14;19.10;99.90
38973;DHT22;25333;50.762;4.470;2023-08-17T08:15:40;19.10;99.90
38973;DHT22;25333;50.762;4.470;2023-08-17T08:18:05;19.20;99.90
38973;DHT22;25333;50.762;4.470;2023-08-17T08:20:32;19.10;99.90
38973;DHT22;25333;50.762;4.470;2023-08-17T08:22:58;19.10;99.90
38973;DHT22;25333;50.762;4.470;2023-08-17T08:28:54;19.30;99.90
38973;DHT22;25333;50.762;4.470;2023-08-17T08:31:45;19.30;99.90
38973;DHT22;25333;50.762;4.470;2023-08-17T08:34:34;19.40;99.90
38973;DHT22;25333;50.762;4.470;2023-08-17T08:37:39;19.20;99.90
38973;DHT22;25333;50.762;4.470;2023-08-17T08:40:37;19.30;99.90
38973;DHT22;25333;50.762;4.470;2023-08-17T08:43:43;19.40;99.90
38973;DHT22;25333;50.762;4.470;2023-08-17T08:46:49;19.40;99.90
38973;DHT22;25333;50.762;4.470;2023-08-17T08:49:23;19.40;99.90
38973;DHT22;25333;50.762;4.470;2023-08-17T08:51:51;19.40;99.90
38973;DHT22;25333;50.762;4.470;2023-08-17T08:54:55;19.50;99.90
38973;DHT22;25333;50.762;4.470;2023-08-17T08:58:31;19.60;99.90
38973;DHT22;25333;50.762;4.470;2023-08-17T09:01:39;19.50;99.90
38973;DHT22;25333;50.762;4.470;2023-08-17T09:04:36;19.60;99.90
38973;DHT22;25333;50.762;4.470;2023-08-17T09:07:42;19.70;99.90
38973;DHT22;25333;50.762;4.470;2023-08-17T09:11:09;19.60;99.90
38973;DHT22;25333;50.762;4.470;2023-08-17T09:14:07;19.50;99.90
38973;DHT22;25333;50.762;4.470;2023-08-17T09:16:59;19.60;99.90
38973;DHT22;25333;50.762;4.470;2023-08-17T09:19:26;19.80;99.90
38973;DHT22;25333;50.762;4.470;2023-08-17T09:22:43;19.90;99.90
38973;DHT22;25333;50.762;4.470;2023-08-17T09:25:33;19.80;99.90
38973;DHT22;25333;50.762;4.470;2023-08-17T09:28:25;19.60;99.90
38973;DHT22;25333;50.762;4.470;2023-08-17T09:31:14;19.70;99.90
38973;DHT22;25333;50.762;4.470;2023-08-17T09:34:15;19.70;99.90
38973;DHT22;25333;50.762;4.470;2023-08-17T09:37:04;20.00;99.90
38973;DHT22;25333;50.762;4.470;2023-08-17T09:39:33;20.20;99.90
38973;DHT22;25333;50.762;4.470;2023-08-17T09:42:55;20.30;99.90
38973;DHT22;25333;50.762;4.470;2023-08-17T09:45:25;20.50;99.90
38973;DHT22;25333;50.762;4.470;2023-08-17T09:48:22;20.50;99.90
38973;DHT22;25333;50.762;4.470;2023-08-17T09:51:08;20.50;99.90
38973;DHT22;25333;50.762;4.470;2023-08-17T09:54:07;20.30;99.90
38973;DHT22;25333;50.762;4.470;2023-08-17T09:56:57;20.40;99.90
38973;DHT22;25333;50.762;4.470;2023-08-17T09:59:47;20.50;99.90
38973;DHT22;25333;50.762;4.470;2023-08-17T10:02:22;20.50;99.90
38973;DHT22;25333;50.762;4.470;2023-08-17T10:05:48;20.50;99.90
38973;DHT22;25333;50.762;4.470;2023-08-17T10:08:51;20.60;99.90
38973;DHT22;25333;50.762;4.470;2023-08-17T10:12:12;20.70;99.90
38973;DHT22;25333;50.762;4.470;2023-08-17T10:15:47;20.70;99.90
38973;DHT22;25333;50.762;4.470;2023-08-17T10:21:56;20.80;99.90
38973;DHT22;25333;50.762;4.470;2023-08-17T10:25:24;20.40;99.90
38973;DHT22;25333;50.762;4.470;2023-08-17T10:28:33;20.50;99.90
38973;DHT22;25333;50.762;4.470;2023-08-17T10:32:06;20.40;99.90
38973;DHT22;25333;50.762;4.470;2023-08-17T10:34:46;20.50;99.90
38973;DHT22;25333;50.762;4.470;2023-08-17T10:38:18;20.60;99.90
38973;DHT22;25333;50.762;4.470;2023-08-17T10:41:50;20.60;99.90
38973;DHT22;25333;50.762;4.470;2023-08-17T10:45:46;20.60;99.90
38973;DHT22;25333;50.762;4.470;2023-08-17T10:48:30;20.80;99.90
38973;DHT22;25333;50.762;4.470;2023-08-17T10:51:25;20.90;99.90
38973;DHT22;25333;50.762;4.470;2023-08-17T10:54:20;21.10;99.90
38973;DHT22;25333;50.762;4.470;2023-08-17T10:57:35;21.10;99.90
38973;DHT22;25333;50.762;4.470;2023-08-17T11:00:39;21.20;99.90
38973;DHT22;25333;50.762;4.470;2023-08-17T11:03:47;21.20;99.90
38973;DHT22;25333;50.762;4.470;2023-08-17T11:06:43;20.90;99.90
38973;DHT22;25333;50.762;4.470;2023-08-17T11:09:54;20.60;99.90
38973;DHT22;25333;50.762;4.470;2023-08-17T11:12:48;20.70;99.90
38973;DHT22;25333;50.762;4.470;2023-08-17T11:15:37;21.00;99.90
38973;DHT22;25333;50.762;4.470;2023-08-17T11:18:42;21.10;99.90
38973;DHT22;25333;50.762;4.470;2023-08-17T11:21:55;21.30;99.90
38973;DHT22;25333;50.762;4.470;2023-08-17T11:24:41;21.20;99.90
38973;DHT22;25333;50.762;4.470;2023-08-17T11:27:23;21.10;99.90
38973;DHT22;25333;50.762;4.470;2023-08-17T11:30:31;21.30;99.90
38973;DHT22;25333;50.762;4.470;2023-08-17T11:33:22;21.40;99.90
38973;DHT22;25333;50.762;4.470;2023-08-17T11:36:53;21.50;99.90
38973;DHT22;25333;50.762;4.470;2023-08-17T11:40:01;21.30;99.90
38973;DHT22;25333;50.762;4.470;2023-08-17T11:43:13;21.20;99.90
38973;DHT22;25333;50.762;4.470;2023-08-17T11:46:38;21.10;99.90
38973;DHT22;25333;50.762;4.470;2023-08-17T11:49:34;21.20;99.90
38973;DHT22;25333;50.762;4.470;2023-08-17T11:52:08;21.20;99.90
38973;DHT22;25333;50.762;4.470;2023-08-17T11:55:36;21.20;99.90
38973;DHT22;25333;50.762;4.470;2023-08-17T11:58:17;21.20;99.90
38973;DHT22;25333;50.762;4.470;2023-08-17T12:01:48;21.20;99.90
38973;DHT22;25333;50.762;4.470;2023-08-17T12:05:27;21.10;99.90
38973;DHT22;25333;50.762;4.470;2023-08-17T12:08:15;21.10;99.90
38973;DHT22;25333;50.762;4.470;2023-08-17T12:11:03;21.30;99.90
38973;DHT22;25333;50.762;4.470;2023-08-17T12:13:58;21.30;99.90
38973;DHT22;25333;50.762;4.470;2023-08-17T12:16:50;21.30;99.90
38973;DHT22;25333;50.762;4.470;2023-08-17T12:19:24;21.30;99.90
38973;DHT22;25333;50.762;4.470;2023-08-17T12:22:46;21.40;99.90
38973;DHT22;25333;50.762;4.470;2023-08-17T12:28:40;21.50;99.90
38973;DHT22;25333;50.762;4.470;2023-08-17T12:31:39;21.40;99.90
38973;DHT22;25333;50.762;4.470;2023-08-17T12:34:34;21.50;99.90
38973;DHT22;25333;50.762;4.470;2023-08-17T12:37:00;21.60;99.90
38973;DHT22;25333;50.762;4.470;2023-08-17T12:40:15;21.60;99.90
38973;DHT22;25333;50.762;4.470;2023-08-17T12:43:07;21.70;99.90
38973;DHT22;25333;50.762;4.470;2023-08-17T12:45:39;21.60;99.90
38973;DHT22;25333;50.762;4.470;2023-08-17T12:48:25;21.50;99.90
38973;DHT22;25333;50.762;4.470;2023-08-17T12:51:30;21.40;99.90
38973;DHT22;25333;50.762;4.470;2023-08-17T12:54:41;21.50;99.90
38973;DHT22;25333;50.762;4.470;2023-08-17T12:57:44;21.70;99.90
38973;DHT22;25333;50.762;4.470;2023-08-17T13:00:20;21.70;99.90
38973;DHT22;25333;50.762;4.470;2023-08-17T13:03:26;21.80;99.90
38973;DHT22;25333;50.762;4.470;2023-08-17T13:06:12;21.80;99.90
38973;DHT22;25333;50.762;4.470;2023-08-17T13:09:17;21.90;99.90
38973;DHT22;25333;50.762;4.470;2023-08-17T13:12:29;21.70;99.90
38973;DHT22;25333;50.762;4.470;2023-08-17T13:15:55;21.70;99.90
38973;DHT22;25333;50.762;4.470;2023-08-17T13:19:13;21.60;99.90
38973;DHT22;25333;50.762;4.470;2023-08-17T13:22:42;21.70;99.90
38973;DHT22;25333;50.762;4.470;2023-08-17T13:25:47;21.80;99.90
38973;DHT22;25333;50.762;4.470;2023-08-17T13:28:35;21.90;99.90
38973;DHT22;25333;50.762;4.470;2023-08-17T13:31:46;21.90;99.90
38973;DHT22;25333;50.762;4.470;2023-08-17T13:35:11;21.90;99.90
38973;DHT22;25333;50.762;4.470;2023-08-17T13:38:01;21.70;99.90
38973;DHT22;25333;50.762;4.470;2023-08-17T13:40:52;21.80;99.90
38973;DHT22;25333;50.762;4.470;2023-08-17T13:44:33;21.70;99.90
38973;DHT22;25333;50.762;4.470;2023-08-17T13:47:59;21.60;99.90
38973;DHT22;25333;50.762;4.470;2023-08-17T13:50:55;21.70;99.90
38973;DHT22;25333;50.762;4.470;2023-08-17T13:54:06;21.70;99.90
38973;DHT22;25333;50.762;4.470;2023-08-17T13:57:38;21.80;99.90
38973;DHT22;25333;50.762;4.470;2023-08-17T14:00:31;21.80;99.90
38973;DHT22;25333;50.762;4.470;2023-08-17T14:03:48;21.70;99.90
38973;DHT22;25333;50.762;4.470;2023-08-17T14:07:03;21.70;99.90
38973;DHT22;25333;50.762;4.470;2023-08-17T14:10:23;21.70;99.90
38973;DHT22;25333;50.762;4.470;2023-08-17T14:13:11;21.60;99.90
38973;DHT22;25333;50.762;4.470;2023-08-17T14:15:37;21.50;99.90
38973;DHT22;25333;50.762;4.470;2023-08-17T14:18:05;21.50;99.90
38973;DHT22;25333;50.762;4.470;2023-08-17T14:20:31;21.30;99.90
38973;DHT22;25333;50.762;4.470;2023-08-17T14:22:56;21.20;99.90
38973;DHT22;25333;50.762;4.470;2023-08-17T14:25:22;21.10;99.90
38973;DHT22;25333;50.762;4.470;2023-08-17T14:27:48;21.20;99.90
38973;DHT22;25333;50.762;4.470;2023-08-17T14:30:13;21.30;99.90
38973;DHT22;25333;50.762;4.470;2023-08-17T14:32:39;21.30;99.90
38973;DHT22;25333;50.762;4.470;2023-08-17T14:35:06;21.30;99.90
38973;DHT22;25333;50.762;4.470;2023-08-17T14:37:32;21.20;99.90
38973;DHT22;25333;50.762;4.470;2023-08-17T14:39:58;21.30;99.90
38973;DHT22;25333;50.762;4.470;2023-08-17T14:42:24;21.30;99.90
38973;DHT22;25333;50.762;4.470;2023-08-17T14:44:51;21.30;99.90
38973;DHT22;25333;50.762;4.470;2023-08-17T14:47:16;21.40;99.90
38973;DHT22;25333;50.762;4.470;2023-08-17T14:49:42;21.50;99.90
38973;DHT22;25333;50.762;4.470;2023-08-17T14:52:08;21.50;99.90
38973;DHT22;25333;50.762;4.470;2023-08-17T14:54:33;21.60;99.90
38973;DHT22;25333;50.762;4.470;2023-08-17T14:56:59;21.70;99.90
38973;DHT22;25333;50.762;4.470;2023-08-17T14:59:25;21.80;99.90
38973;DHT22;25333;50.762;4.470;2023-08-17T15:01:51;21.70;99.90
38973;DHT22;25333;50.762;4.470;2023-08-17T15:04:18;21.60;99.90
38973;DHT22;25333;50.762;4.470;2023-08-17T15:06:43;21.50;99.90
38973;DHT22;25333;50.762;4.470;2023-08-17T15:09:09;21.50;99.90
38973;DHT22;25333;50.762;4.470;2023-08-17T15:11:35;21.50;99.90
38973;DHT22;25333;50.762;4.470;2023-08-17T15:14:02;21.60;99.90
38973;DHT22;25333;50.762;4.470;2023-08-17T15:16:29;21.70;99.90
38973;DHT22;25333;50.762;4.470;2023-08-17T15:18:55;21.60;99.90
38973;DHT22;25333;50.762;4.470;2023-08-17T15:21:21;21.60;99.90
38973;DHT22;25333;50.762;4.470;2023-08-17T15:23:47;21.60;99.90
38973;DHT22;25333;50.762;4.470;2023-08-17T15:26:13;21.70;99.90
38973;DHT22;25333;50.762;4.470;2023-08-17T15:28:40;21.70;99.90
38973;DHT22;25333;50.762;4.470;2023-08-17T15:31:07;21.80;99.90
38973;DHT22;25333;50.762;4.470;2023-08-17T15:33:39;21.70;99.90
38973;DHT22;25333;50.762;4.470;2023-08-17T15:36:05;21.90;99.90
38973;DHT22;25333;50.762;4.470;2023-08-17T15:38:31;21.90;99.90
38973;DHT22;25333;50.762;4.470;2023-08-17T15:40:57;21.70;99.90
38973;DHT22;25333;50.762;4.470;2023-08-17T15:43:23;21.80;99.90
38973;DHT22;25333;50.762;4.470;2023-08-17T15:45:52;21.80;99.90
38973;DHT22;25333;50.762;4.470;2023-08-17T15:48:20;21.90;99.90
38973;DHT22;25333;50.762;4.470;2023-08-17T15:50:46;22.00;99.90
38973;DHT22;25333;50.762;4.470;2023-08-17T15:53:11;21.90;99.90
38973;DHT22;25333;50.762;4.470;2023-08-17T15:55:37;22.00;99.90
38973;DHT22;25333;50.762;4.470;2023-08-17T15:58:03;22.00;99.90
38973;DHT22;25333;50.762;4.470;2023-08-17T16:00:28;22.00;99.90
38973;DHT22;25333;50.762;4.470;2023-08-17T16:02:54;21.80;99.90
38973;DHT22;25333;50.762;4.470;2023-08-17T16:05:20;21.80;99.90
38973;DHT22;25333;50.762;4.470;2023-08-17T16:07:45;22.00;99.90
38973;DHT22;25333;50.762;4.470;2023-08-17T16:10:11;22.00;99.90
38973;DHT22;25333;50.762;4.470;2023-08-17T16:12:37;22.00;99.90
38973;DHT22;25333;50.762;4.470;2023-08-17T16:15:03;22.00;99.90
38973;DHT22;25333;50.762;4.470;2023-08-17T16:17:28;22.00;99.90
38973;DHT22;25333;50.762;4.470;2023-08-17T16:19:54;22.10;99.90
38973;DHT22;25333;50.762;4.470;2023-08-17T16:22:20;21.90;99.90
38973;DHT22;25333;50.762;4.470;2023-08-17T16:24:45;21.90;99.90
38973;DHT22;25333;50.762;4.470;2023-08-17T16:27:11;21.80;99.90
38973;DHT22;25333;50.762;4.470;2023-08-17T16:29:37;21.90;99.90
38973;DHT22;25333;50.762;4.470;2023-08-17T16:32:03;21.90;99.90
38973;DHT22;25333;50.762;4.470;2023-08-17T16:34:31;22.00;99.90
38973;DHT22;25333;50.762;4.470;2023-08-17T16:36:57;22.10;99.90
38973;DHT22;25333;50.762;4.470;2023-08-17T16:39:23;22.10;99.90
38973;DHT22;25333;50.762;4.470;2023-08-17T16:41:49;22.10;99.90
38973;DHT22;25333;50.762;4.470;2023-08-17T16:44:28;22.30;99.90
38973;DHT22;25333;50.762;4.470;2023-08-17T16:46:55;22.30;99.90